createdAt,value
2018-05-25T00:01:38.557Z,74.62
2018-05-25T00:04:08.788Z,76.70
2018-05-25T00:06:38.519Z,77.17
2018-05-25T00:09:08.234Z,76.98
2018-05-25T00:11:38.722Z,77.80
2018-05-25T00:14:08.473Z,78.70
2018-05-25T00:16:39.100Z,79.33
2018-05-25T00:19:11.655Z,79.22
2018-05-25T00:21:42.357Z,80.16
2018-05-25T00:24:12.173Z,80.88
2018-05-25T00:26:41.895Z,81.59
2018-05-25T00:29:11.732Z,81.20
2018-05-25T00:31:42.259Z,78.95
2018-05-25T00:34:11.767Z,80.81
2018-05-25T00:36:41.253Z,81.76
2018-05-25T00:39:11.091Z,82.56
2018-05-25T00:41:40.767Z,82.90
2018-05-25T00:44:10.673Z,82.88
2018-05-25T00:46:40.937Z,83.10
2018-05-25T00:49:10.923Z,82.25
2018-05-25T00:51:41.121Z,83.29
2018-05-25T00:54:11.304Z,83.49
2018-05-25T00:56:40.725Z,83.03
2018-05-25T00:59:10.807Z,82.47
2018-05-25T01:01:42.063Z,82.60
2018-05-25T01:04:11.769Z,83.05
2018-05-25T01:06:41.759Z,80.60
2018-05-25T01:09:11.713Z,79.71
2018-05-25T01:11:43.587Z,78.35
2018-05-25T01:14:13.371Z,78.28
2018-05-25T01:16:43.218Z,78.00
2018-05-25T01:19:14.504Z,79.48
2018-05-25T01:21:44.691Z,80.45
2018-05-25T01:24:15.297Z,80.81
2018-05-25T01:26:45.479Z,81.87
2018-05-25T01:29:15.493Z,80.91
2018-05-25T01:31:45.131Z,81.09
2018-05-25T01:34:14.989Z,80.60
2018-05-25T01:36:44.970Z,79.45
2018-05-25T01:39:14.755Z,80.00
2018-05-25T01:41:44.417Z,77.17
2018-05-25T01:44:14.375Z,77.73
2018-05-25T01:46:44.054Z,78.78
2018-05-25T01:49:13.506Z,77.54
2018-05-25T01:51:43.499Z,78.17
2018-05-25T01:54:13.205Z,80.44
2018-05-25T01:56:42.909Z,80.30
2018-05-25T01:59:12.751Z,81.37
2018-05-25T02:01:42.322Z,81.37
2018-05-25T02:04:11.829Z,81.91
2018-05-25T02:06:42.256Z,80.83
2018-05-25T02:09:11.774Z,80.37
2018-05-25T02:11:41.355Z,81.71
2018-05-25T02:14:13.734Z,82.36
2018-05-25T02:16:45.455Z,82.56
2018-05-25T02:19:15.647Z,80.61
2018-05-25T02:21:45.019Z,81.76
2018-05-25T02:24:14.641Z,82.62
2018-05-25T02:26:44.364Z,82.52
2018-05-25T02:29:14.041Z,82.39
2018-05-25T02:31:43.693Z,82.65
2018-05-25T02:34:13.671Z,82.24
2018-05-25T02:36:43.370Z,82.17
2018-05-25T02:39:12.878Z,81.91
2018-05-25T02:41:42.790Z,81.95
2018-05-25T02:44:12.382Z,81.81
2018-05-25T02:46:41.751Z,80.50
2018-05-25T02:49:12.457Z,78.97
2018-05-25T02:51:42.181Z,77.46
2018-05-25T02:54:11.917Z,75.94
2018-05-25T02:56:41.843Z,75.52
2018-05-25T02:59:11.641Z,75.53
2018-05-25T03:01:41.610Z,76.31
2018-05-25T03:04:10.938Z,77.25
2018-05-25T03:06:42.072Z,78.17
2018-05-25T03:09:11.719Z,79.33
2018-05-25T03:11:41.515Z,79.33
2018-05-25T03:14:13.055Z,78.48
2018-05-25T03:16:42.549Z,79.96
2018-05-25T03:19:12.240Z,79.82
2018-05-25T03:21:41.826Z,79.84
2018-05-25T03:24:11.586Z,78.12
2018-05-25T03:26:41.205Z,77.12
2018-05-25T03:29:11.151Z,75.77
2018-05-25T03:31:40.939Z,75.00
2018-05-25T03:34:10.674Z,75.45
2018-05-25T03:36:40.130Z,76.34
2018-05-25T03:39:09.794Z,76.24
2018-05-25T03:41:39.301Z,76.37
2018-05-25T03:44:09.563Z,77.12
2018-05-25T03:46:39.263Z,74.99
2018-05-25T03:49:08.670Z,74.09
2018-05-25T03:51:38.969Z,73.58
2018-05-25T03:54:08.927Z,74.10
2018-05-25T03:56:39.065Z,73.87
2018-05-25T04:00:21.482Z,75.74
2018-05-25T04:02:51.533Z,77.76
2018-05-25T04:05:21.830Z,78.24
2018-05-25T04:07:51.346Z,78.68
2018-05-25T04:10:21.053Z,78.87
2018-05-25T04:12:51.377Z,75.43
2018-05-25T04:15:21.022Z,75.32
2018-05-25T04:17:50.798Z,78.09
2018-05-25T04:20:24.581Z,79.63
2018-05-25T04:22:53.993Z,80.34
2018-05-25T04:25:23.623Z,81.30
2018-05-25T04:28:04.426Z,82.49
2018-05-25T04:30:34.392Z,82.08
2018-05-25T04:33:05.822Z,81.59
2018-05-25T04:35:36.724Z,81.65
2018-05-25T04:38:06.358Z,81.31
2018-05-25T04:40:35.788Z,81.32
2018-05-25T04:43:06.874Z,81.40
2018-05-25T04:45:36.308Z,80.56
2018-05-25T04:48:06.433Z,76.62
2018-05-25T04:50:35.905Z,75.55
2018-05-25T04:53:05.531Z,76.81
2018-05-25T04:55:36.163Z,76.28
2018-05-25T04:58:08.299Z,75.10
2018-05-25T05:00:37.925Z,72.48
2018-05-25T05:03:07.475Z,74.90
2018-05-25T05:05:37.229Z,74.65
2018-05-25T05:08:09.558Z,75.23
2018-05-25T05:10:39.444Z,71.75
2018-05-25T05:13:13.367Z,70.62
2018-05-25T05:15:47.951Z,71.01
2018-05-25T05:18:18.157Z,72.04
2018-05-25T05:20:49.577Z,72.19
2018-05-25T05:23:22.563Z,72.10
2018-05-25T05:25:59.010Z,70.50
2018-05-25T05:28:32.115Z,75.25
2018-05-25T05:31:06.400Z,72.62
2018-05-25T05:33:53.381Z,75.45
2018-05-25T05:36:29.536Z,79.17
2018-05-25T05:39:01.988Z,78.05
2018-05-25T05:41:31.889Z,78.68
2018-05-25T05:44:01.499Z,78.46
2018-05-25T05:46:31.259Z,78.00
2018-05-25T05:49:00.894Z,74.89
2018-05-25T05:51:30.295Z,76.26
2018-05-25T05:54:00.288Z,75.45
2018-05-25T05:56:29.722Z,74.75
2018-05-25T05:58:59.225Z,72.97
2018-05-25T06:01:28.898Z,69.79
2018-05-25T06:03:58.371Z,69.13
2018-05-25T06:06:28.554Z,73.22
2018-05-25T06:08:58.346Z,73.14
2018-05-25T06:11:27.777Z,72.22
2018-05-25T06:13:57.490Z,72.40
2018-05-25T06:16:26.866Z,74.26
2018-05-25T06:18:56.207Z,72.85
2018-05-25T06:21:25.874Z,70.79
2018-05-25T06:23:55.217Z,77.08
2018-05-25T06:26:24.573Z,72.75
2018-05-25T06:28:53.949Z,72.25
2018-05-25T06:31:23.571Z,70.98
2018-05-25T06:33:53.174Z,70.86
2018-05-25T06:36:22.846Z,73.68
2018-05-25T06:38:52.397Z,70.26
2018-05-25T06:41:22.082Z,70.25
2018-05-25T06:43:51.609Z,73.39
2018-05-25T06:46:21.366Z,72.11
2018-05-25T06:48:50.987Z,74.49
2018-05-25T06:51:20.618Z,74.21
2018-05-25T06:53:50.327Z,75.13
2018-05-25T06:56:20.356Z,75.40
2018-05-25T06:58:49.729Z,74.74
2018-05-25T07:01:19.494Z,73.65
2018-05-25T07:03:48.871Z,70.65
2018-05-25T07:06:18.651Z,72.85
2018-05-25T07:08:48.189Z,72.78
2018-05-25T07:11:18.076Z,72.85
2018-05-25T07:13:47.815Z,74.09
2018-05-25T07:16:17.874Z,74.40
2018-05-25T07:18:47.206Z,71.01
2018-05-25T07:21:16.758Z,68.90
2018-05-25T07:23:46.405Z,64.10
2018-05-25T07:26:16.053Z,63.95
2018-05-25T07:28:45.854Z,68.42
2018-05-25T07:31:15.488Z,66.64
2018-05-25T07:33:45.207Z,63.05
2018-05-25T07:36:15.207Z,61.98
2018-05-25T07:38:44.600Z,61.10
2018-05-25T07:41:14.409Z,59.14
2018-05-25T07:43:44.637Z,61.44
2018-05-25T07:46:14.337Z,61.46
2018-05-25T07:48:43.899Z,59.94
2018-05-25T07:51:13.959Z,58.36
2018-05-25T07:53:43.793Z,55.93
2018-05-25T07:56:13.662Z,60.26
2018-05-25T07:58:44.137Z,58.99
2018-05-25T08:01:14.571Z,62.98
2018-05-25T08:03:44.452Z,65.07
2018-05-25T08:06:14.331Z,68.78
2018-05-25T08:08:43.734Z,68.16
2018-05-25T08:11:13.404Z,67.17
2018-05-25T08:13:43.243Z,66.71
2018-05-25T08:16:12.781Z,63.78
2018-05-25T08:18:42.161Z,60.73
2018-05-25T08:21:12.050Z,59.10
2018-05-25T08:23:42.045Z,60.61
2018-05-25T08:26:11.600Z,63.02
2018-05-25T08:28:43.168Z,58.50
2018-05-25T08:31:18.800Z,57.22
2018-05-25T08:33:48.594Z,54.65
2018-05-25T08:36:18.709Z,54.63
2018-05-25T08:38:48.364Z,54.60
2018-05-25T08:41:18.603Z,57.16
2018-05-25T08:43:48.505Z,53.94
2018-05-25T08:46:18.334Z,57.72
2018-05-25T08:48:48.404Z,56.18
2018-05-25T08:51:18.043Z,56.73
2018-05-25T08:53:47.702Z,57.03
2018-05-25T08:56:17.231Z,54.82
2018-05-25T08:58:46.918Z,58.91
2018-05-25T09:01:16.365Z,58.26
2018-05-25T09:03:45.869Z,58.47
2018-05-25T09:06:15.687Z,55.26
2018-05-25T09:08:45.619Z,58.58
2018-05-25T09:11:15.377Z,55.35
2018-05-25T09:13:45.072Z,58.24
2018-05-25T09:16:14.642Z,61.76
2018-05-25T09:18:44.377Z,58.63
2018-05-25T09:21:14.194Z,56.44
2018-05-25T09:23:43.830Z,55.45
2018-05-25T09:26:13.582Z,57.66
2018-05-25T09:28:43.252Z,60.59
2018-05-25T09:31:13.406Z,57.47
2018-05-25T09:33:43.297Z,54.21
2018-05-25T09:36:12.972Z,57.42
2018-05-25T09:38:42.933Z,56.49
2018-05-25T09:41:12.680Z,53.47
2018-05-25T09:43:42.065Z,53.92
2018-05-25T09:46:11.802Z,54.14
2018-05-25T09:48:41.202Z,53.14
2018-05-25T09:51:10.577Z,53.14
2018-05-25T09:53:40.520Z,55.82
2018-05-25T09:56:10.162Z,56.75
2018-05-25T09:58:40.102Z,55.56
2018-05-25T10:01:09.725Z,60.82
2018-05-25T10:03:39.117Z,58.29
2018-05-25T10:06:09.038Z,60.90
2018-05-25T10:08:39.206Z,61.69
2018-05-25T10:11:09.010Z,61.83
2018-05-25T10:13:38.419Z,63.23
2018-05-25T10:16:09.048Z,63.72
2018-05-25T10:18:38.569Z,59.41
2018-05-25T10:21:08.648Z,59.02
2018-05-25T10:23:38.474Z,61.89
2018-05-25T10:26:07.822Z,61.04
2018-05-25T10:28:37.168Z,60.47
2018-05-25T10:31:06.790Z,60.96
2018-05-25T10:33:36.179Z,62.47
2018-05-25T10:36:05.636Z,62.64
2018-05-25T10:38:34.986Z,62.78
2018-05-25T10:41:04.826Z,57.71
2018-05-25T10:43:35.369Z,58.00
2018-05-25T10:46:06.191Z,60.81
2018-05-25T10:48:35.712Z,60.30
2018-05-25T10:51:05.794Z,61.54
2018-05-25T10:53:35.319Z,59.69
2018-05-25T10:56:04.842Z,60.46
2018-05-25T10:58:34.519Z,61.62
2018-05-25T11:01:04.299Z,59.67
2018-05-25T11:03:33.861Z,56.81
2018-05-25T11:06:03.707Z,55.04
2018-05-25T11:08:33.080Z,55.67
2018-05-25T11:11:02.616Z,56.32
2018-05-25T11:13:32.328Z,53.83
2018-05-25T11:16:01.731Z,55.88
2018-05-25T11:18:31.117Z,53.26
2018-05-25T11:21:00.863Z,50.16
2018-05-25T11:23:30.472Z,55.07
2018-05-25T11:26:00.645Z,53.53
2018-05-25T11:28:30.318Z,52.34
2018-05-25T11:30:59.795Z,51.91
2018-05-25T11:33:29.238Z,52.43
2018-05-25T11:35:59.131Z,53.39
2018-05-25T11:38:33.105Z,55.31
2018-05-25T11:41:03.662Z,55.28
2018-05-25T11:43:33.504Z,56.15
2018-05-25T11:46:03.071Z,55.90
2018-05-25T11:48:34.020Z,55.34
2018-05-25T11:51:03.477Z,55.93
2018-05-25T11:53:33.572Z,54.75
2018-05-25T11:56:05.522Z,54.00
2018-05-25T11:58:35.518Z,53.52
2018-05-25T12:02:10.123Z,52.75
2018-05-25T12:04:40.279Z,52.07
2018-05-25T12:07:10.432Z,52.73
2018-05-25T12:09:40.764Z,53.11
2018-05-25T12:12:10.838Z,55.08
2018-05-25T12:14:40.633Z,58.85
2018-05-25T12:17:10.962Z,60.20
2018-05-25T12:19:42.066Z,60.57
2018-05-25T12:22:18.028Z,63.47
2018-05-25T12:24:48.883Z,63.62
2018-05-25T12:27:22.094Z,63.32
2018-05-25T12:29:54.335Z,62.36
2018-05-25T12:32:24.625Z,66.05
2018-05-25T12:34:54.054Z,66.80
2018-05-25T12:37:23.789Z,69.10
2018-05-25T12:39:54.197Z,68.58
2018-05-25T12:42:23.887Z,69.48
2018-05-25T12:45:14.914Z,69.52
2018-05-25T12:47:44.638Z,69.19
2018-05-25T12:50:14.860Z,68.31
2018-05-25T12:52:45.482Z,67.49
2018-05-25T12:55:15.820Z,65.73
2018-05-25T12:57:47.250Z,66.28
2018-05-25T13:00:17.309Z,69.16
2018-05-25T13:02:47.123Z,65.81
2018-05-25T13:05:17.284Z,65.98
2018-05-25T13:07:48.134Z,63.69
2018-05-25T13:10:18.121Z,63.96
2018-05-25T13:12:47.525Z,61.40
2018-05-25T13:15:16.992Z,59.62
2018-05-25T13:17:47.902Z,60.39
2018-05-25T13:20:25.051Z,61.17
2018-05-25T13:22:55.361Z,63.03
2018-05-25T13:25:25.335Z,58.14
2018-05-25T13:27:54.918Z,59.52
2018-05-25T13:30:24.599Z,62.11
2018-05-25T13:32:54.391Z,56.88
2018-05-25T13:35:25.560Z,58.20
2018-05-25T13:37:55.773Z,56.84
2018-05-25T13:40:26.133Z,52.17
2018-05-25T13:42:55.906Z,50.61
2018-05-25T13:45:26.976Z,51.09
2018-05-25T13:47:59.099Z,50.82
2018-05-25T13:50:29.022Z,50.91
2018-05-25T13:53:02.224Z,48.25
2018-05-25T13:55:34.072Z,48.65
2018-05-25T13:58:04.235Z,49.15
2018-05-25T14:00:35.096Z,46.98
2018-05-25T14:03:07.692Z,45.64
2018-05-25T14:05:41.329Z,46.22
2018-05-25T14:08:19.085Z,45.94
2018-05-25T14:10:55.151Z,43.97
2018-05-25T14:13:26.590Z,45.06
2018-05-25T14:15:59.104Z,44.73
2018-05-25T14:18:33.667Z,43.93
2018-05-25T14:21:10.015Z,44.79
2018-05-25T14:23:42.070Z,45.06
2018-05-25T14:26:18.737Z,44.21
2018-05-25T14:28:50.251Z,45.21
2018-05-25T14:31:20.501Z,43.34
2018-05-25T14:33:52.011Z,43.46
2018-05-25T14:36:22.716Z,42.08
2018-05-25T14:38:53.013Z,41.83
2018-05-25T14:41:22.787Z,41.60
2018-05-25T14:46:32.473Z,40.78
2018-05-25T14:49:04.725Z,40.96
2018-05-25T14:51:35.419Z,40.89
2018-05-25T14:54:05.142Z,42.59
2018-05-25T14:56:37.353Z,42.74
2018-05-25T14:59:10.512Z,42.12
2018-05-25T15:01:41.932Z,42.05
2018-05-25T15:04:12.093Z,43.57
2018-05-25T15:06:42.201Z,43.41
2018-05-25T15:09:12.564Z,43.69
2018-05-25T15:11:45.775Z,45.15
2018-05-25T15:14:18.843Z,45.01
2018-05-25T15:16:51.702Z,46.28
2018-05-25T15:19:23.202Z,47.18
2018-05-25T15:21:53.976Z,44.37
2018-05-25T15:24:31.229Z,44.26
2018-05-25T15:27:13.260Z,43.73
2018-05-25T15:29:42.989Z,44.04
2018-05-25T15:32:18.201Z,43.31
2018-05-25T15:34:59.843Z,43.42
2018-05-25T15:37:31.246Z,43.60
2018-05-25T15:40:01.718Z,44.31
2018-05-25T15:42:33.276Z,43.63
2018-05-25T15:45:04.177Z,44.78
2018-05-25T15:47:34.203Z,44.44
2018-05-25T15:50:04.025Z,44.35
2018-05-25T15:52:34.060Z,43.21
2018-05-25T15:55:08.410Z,43.53
2018-05-25T15:57:39.871Z,42.79
2018-05-25T16:00:14.477Z,42.44
2018-05-25T16:02:50.476Z,41.86
2018-05-25T16:05:20.994Z,44.19
2018-05-25T16:07:50.870Z,42.03
2018-05-25T16:10:22.242Z,42.70
2018-05-25T16:12:56.355Z,43.51
2018-05-25T16:15:26.908Z,41.35
2018-05-25T16:17:57.040Z,40.51
2018-05-25T16:20:27.128Z,41.10
2018-05-25T16:22:57.599Z,41.53
2018-05-25T16:25:29.778Z,41.13
2018-05-25T16:27:59.528Z,40.69
2018-05-25T16:30:29.615Z,43.36
2018-05-25T16:32:59.455Z,40.28
2018-05-25T16:35:31.365Z,40.74
2018-05-25T16:38:02.305Z,40.88
2018-05-25T16:40:31.970Z,42.72
2018-05-25T16:43:02.672Z,40.18
2018-05-25T16:45:32.868Z,40.39
2018-05-25T16:48:03.318Z,40.53
2018-05-25T16:50:35.299Z,43.30
2018-05-25T16:53:06.050Z,40.54
2018-05-25T16:55:44.132Z,42.63
2018-05-25T16:58:16.182Z,41.42
2018-05-25T17:00:47.092Z,40.92
2018-05-25T17:03:22.163Z,41.20
2018-05-25T17:05:53.488Z,41.16
2018-05-25T17:08:25.217Z,41.82
2018-05-25T17:10:59.795Z,42.29
2018-05-25T17:13:32.248Z,43.67
2018-05-25T17:16:04.454Z,42.71
2018-05-25T17:18:37.339Z,43.00
2018-05-25T17:21:08.658Z,42.84
2018-05-25T17:23:40.351Z,43.65
2018-05-25T17:26:12.331Z,43.53
2018-05-25T17:28:46.553Z,44.55
2018-05-25T17:31:18.025Z,42.85
2018-05-25T17:33:48.229Z,43.04
2018-05-25T17:36:22.929Z,42.97
2018-05-25T17:38:54.564Z,43.29
2018-05-25T17:41:24.718Z,43.68
2018-05-25T17:43:55.760Z,47.08
2018-05-25T17:46:25.922Z,44.43
2018-05-25T17:48:58.271Z,43.60
2018-05-25T17:51:29.726Z,45.76
2018-05-25T17:54:02.519Z,47.00
2018-05-25T17:56:36.438Z,44.42
2018-05-25T17:59:09.518Z,44.16
2018-05-25T18:01:43.905Z,47.19
2018-05-25T18:04:18.241Z,45.11
2018-05-25T18:06:49.369Z,44.69
2018-05-25T18:09:20.001Z,44.92
2018-05-25T18:11:50.049Z,45.30
2018-05-25T18:14:20.269Z,47.18
2018-05-25T18:16:50.743Z,49.44
2018-05-25T18:19:22.207Z,48.07
2018-05-25T18:21:53.005Z,50.40
2018-05-25T18:24:26.719Z,52.51
2018-05-25T18:26:59.716Z,51.04
2018-05-25T18:29:33.756Z,51.56
2018-05-25T18:32:06.862Z,50.27
2018-05-25T18:34:43.960Z,50.00
2018-05-25T18:37:18.883Z,51.72
2018-05-25T18:39:53.050Z,51.64
2018-05-25T18:42:25.421Z,51.02
2018-05-25T18:44:56.571Z,51.55
2018-05-25T18:47:29.917Z,51.82
2018-05-25T18:50:13.374Z,52.32
2018-05-25T18:52:54.049Z,52.82
2018-05-25T18:55:25.938Z,52.97
2018-05-25T18:58:00.071Z,53.95
2018-05-25T19:00:34.240Z,53.87
2018-05-25T19:03:24.733Z,55.06
2018-05-25T19:06:20.316Z,55.04
2018-05-25T19:08:52.755Z,55.17
2018-05-25T19:11:27.183Z,56.27
2018-05-25T19:14:10.621Z,55.52
2018-05-25T19:16:43.462Z,56.62
2018-05-25T19:19:22.159Z,57.15
2018-05-25T19:21:53.762Z,58.00
2018-05-25T19:24:27.560Z,58.30
2018-05-25T19:27:01.196Z,59.00
2018-05-25T19:29:33.541Z,59.39
2018-05-25T19:32:18.520Z,62.79
2018-05-25T19:34:53.075Z,61.35
2018-05-25T19:37:27.385Z,58.39
2018-05-25T19:40:00.513Z,57.96
2018-05-25T19:42:32.582Z,61.83
2018-05-25T19:45:07.378Z,63.73
2018-05-25T19:47:45.769Z,65.08
2018-05-25T19:50:17.815Z,65.69
2018-05-25T19:52:59.083Z,65.87
2018-05-25T19:55:39.404Z,62.29
2018-05-25T19:58:16.610Z,64.77
2018-05-25T20:00:53.059Z,63.26
2018-05-25T20:03:30.124Z,67.56
2018-05-25T20:06:03.969Z,62.56
2018-05-25T20:08:36.736Z,61.85
2018-05-25T20:11:12.441Z,61.40
2018-05-25T20:13:42.845Z,60.84
2018-05-25T20:16:14.920Z,60.70
2018-05-25T20:18:45.361Z,60.69
2018-05-25T20:21:17.844Z,60.63
2018-05-25T20:23:52.576Z,60.78
2018-05-25T20:26:23.888Z,60.79
2018-05-25T20:28:54.457Z,60.62
2018-05-25T20:31:25.601Z,60.73
2018-05-25T20:34:01.753Z,60.86
2018-05-25T20:36:31.763Z,61.10
2018-05-25T20:39:04.760Z,61.22
2018-05-25T20:41:38.245Z,63.03
2018-05-25T20:44:08.360Z,62.11
2018-05-25T20:46:42.188Z,61.62
2018-05-25T20:49:12.851Z,61.37
2018-05-25T20:51:43.051Z,61.32
2018-05-25T20:54:17.565Z,61.34
2018-05-25T20:56:47.193Z,61.98
2018-05-25T20:59:18.882Z,61.76
2018-05-25T21:01:50.008Z,62.05
2018-05-25T21:04:20.280Z,62.68
2018-05-25T21:06:51.014Z,62.73
2018-05-25T21:09:21.703Z,62.52
2018-05-25T21:11:51.901Z,62.22
2018-05-25T21:14:23.203Z,62.09
2018-05-25T21:16:53.167Z,62.22
2018-05-25T21:19:22.877Z,62.19
2018-05-25T21:21:54.219Z,62.38
2018-05-25T21:24:25.257Z,62.22
2018-05-25T21:26:55.435Z,62.80
2018-05-25T21:29:25.642Z,62.78
2018-05-25T21:31:55.928Z,62.81
2018-05-25T21:34:26.924Z,62.60
2018-05-25T21:36:56.506Z,62.91
2018-05-25T21:39:25.960Z,62.68
2018-05-25T21:41:56.937Z,62.38
2018-05-25T21:44:29.455Z,62.04
2018-05-25T21:46:59.800Z,61.79
2018-05-25T21:49:32.506Z,61.73
2018-05-25T21:52:03.116Z,61.69
2018-05-25T21:54:34.128Z,61.37
2018-05-25T21:57:09.934Z,62.04
2018-05-25T21:59:39.650Z,61.76
2018-05-25T22:02:13.776Z,61.34
2018-05-25T22:04:44.661Z,61.03
2018-05-25T22:07:14.508Z,61.26
2018-05-25T22:09:44.369Z,60.90
2018-05-25T22:12:16.064Z,61.52
2018-05-25T22:14:45.602Z,61.87
2018-05-25T22:17:15.565Z,61.86
2018-05-25T22:19:49.496Z,62.54
2018-05-25T22:22:20.590Z,63.12
2018-05-25T22:24:51.636Z,62.58
2018-05-25T22:27:25.252Z,62.97
2018-05-25T22:30:00.129Z,66.35
2018-05-25T22:32:29.949Z,67.18
2018-05-25T22:35:00.640Z,67.95
2018-05-25T22:37:30.563Z,67.04
2018-05-25T22:40:03.186Z,66.84
2018-05-25T22:42:43.708Z,65.64
2018-05-25T22:45:24.283Z,64.50
2018-05-25T22:48:05.305Z,64.42
2018-05-25T22:50:46.176Z,64.38
2018-05-25T22:53:18.023Z,64.09
2018-05-25T22:55:48.888Z,63.43
2018-05-25T22:58:19.079Z,63.96
2018-05-25T23:00:48.618Z,64.33
2018-05-25T23:03:18.736Z,64.76
2018-05-25T23:05:48.177Z,64.67
2018-05-25T23:08:18.052Z,63.87
2018-05-25T23:10:47.820Z,63.98
2018-05-25T23:13:18.464Z,64.79
2018-05-25T23:15:48.037Z,64.91
2018-05-25T23:18:18.302Z,65.06
2018-05-25T23:20:47.849Z,64.73
2018-05-25T23:23:17.916Z,65.49
2018-05-25T23:25:51.824Z,65.38
2018-05-25T23:28:22.493Z,65.14
2018-05-25T23:30:52.947Z,65.20
2018-05-25T23:33:22.604Z,65.72
2018-05-25T23:35:52.684Z,65.47
2018-05-25T23:38:22.767Z,64.93
2018-05-25T23:40:52.852Z,64.99
2018-05-25T23:43:22.427Z,65.11
2018-05-25T23:45:52.172Z,65.19
2018-05-25T23:48:28.886Z,65.76
2018-05-25T23:53:58.139Z,65.08
2018-05-25T23:56:28.775Z,65.50
2018-05-25T23:59:00.953Z,65.69
